sensor_id;sensor_type;location;lat;lon;timestamp;pressure;altitude;pressure_sealevel;temperature;humidity
56182;BME280;51963;46.052;14.544;2024-03-22T00:00:42;98700.38;;;7.41;100.00
56182;BME280;51963;46.052;14.544;2024-03-22T00:03:08;98697.88;;;7.40;100.00
56182;BME280;51963;46.052;14.544;2024-03-22T00:05:33;98696.25;;;7.39;100.00
56182;BME280;51963;46.052;14.544;2024-03-22T00:07:59;98701.81;;;7.36;100.00
56182;BME280;51963;46.052;14.544;2024-03-22T00:10:25;98686.34;;;7.32;100.00
56182;BME280;51963;46.052;14.544;2024-03-22T00:12:50;98700.41;;;7.49;100.00
56182;BME280;51963;46.052;14.544;2024-03-22T00:15:19;98695.81;;;7.52;100.00
56182;BME280;51963;46.052;14.544;2024-03-22T00:17:44;98692.84;;;7.55;100.00
56182;BME280;51963;46.052;14.544;2024-03-22T00:20:10;98676.72;;;7.49;100.00
56182;BME280;51963;46.052;14.544;2024-03-22T00:22:36;98692.69;;;7.64;100.00
56182;BME280;51963;46.052;14.544;2024-03-22T00:25:01;98692.03;;;7.62;100.00
56182;BME280;51963;46.052;14.544;2024-03-22T00:27:27;98692.88;;;7.63;100.00
56182;BME280;51963;46.052;14.544;2024-03-22T00:29:53;98693.53;;;7.65;100.00
56182;BME280;51963;46.052;14.544;2024-03-22T00:32:21;98686.63;;;7.64;100.00
56182;BME280;51963;46.052;14.544;2024-03-22T00:34:53;98673.44;;;7.47;100.00
56182;BME280;51963;46.052;14.544;2024-03-22T00:37:18;98681.66;;;7.53;100.00
56182;BME280;51963;46.052;14.544;2024-03-22T00:39:44;98684.66;;;7.66;100.00
56182;BME280;51963;46.052;14.544;2024-03-22T00:42:12;98671.84;;;7.71;100.00
56182;BME280;51963;46.052;14.544;2024-03-22T00:44:40;98677.94;;;7.80;100.00
56182;BME280;51963;46.052;14.544;2024-03-22T00:47:09;98681.41;;;7.81;100.00
56182;BME280;51963;46.052;14.544;2024-03-22T00:49:34;98665.59;;;7.72;100.00
56182;BME280;51963;46.052;14.544;2024-03-22T00:52:02;98656.03;;;7.71;100.00
56182;BME280;51963;46.052;14.544;2024-03-22T00:54:36;98645.19;;;7.74;100.00
56182;BME280;51963;46.052;14.544;2024-03-22T00:57:17;98639.59;;;7.69;100.00
56182;BME280;51963;46.052;14.544;2024-03-22T00:59:59;98646.31;;;7.72;100.00
56182;BME280;51963;46.052;14.544;2024-03-22T01:02:25;98668.53;;;7.69;100.00
56182;BME280;51963;46.052;14.544;2024-03-22T01:04:50;98661.28;;;7.63;100.00
56182;BME280;51963;46.052;14.544;2024-03-22T01:07:16;98690.25;;;7.71;100.00
56182;BME280;51963;46.052;14.544;2024-03-22T01:09:44;98655.66;;;7.41;100.00
56182;BME280;51963;46.052;14.544;2024-03-22T01:12:10;98682.00;;;7.58;100.00
56182;BME280;51963;46.052;14.544;2024-03-22T01:14:39;98648.72;;;7.32;100.00
56182;BME280;51963;46.052;14.544;2024-03-22T01:17:04;98666.19;;;7.49;100.00
56182;BME280;51963;46.052;14.544;2024-03-22T01:19:30;98670.78;;;7.39;100.00
56182;BME280;51963;46.052;14.544;2024-03-22T01:21:58;98655.31;;;7.36;100.00
56182;BME280;51963;46.052;14.544;2024-03-22T01:24:24;98685.94;;;7.54;100.00
56182;BME280;51963;46.052;14.544;2024-03-22T01:26:49;98709.16;;;7.67;100.00
56182;BME280;51963;46.052;14.544;2024-03-22T01:29:15;98685.75;;;7.55;100.00
56182;BME280;51963;46.052;14.544;2024-03-22T01:31:41;98696.50;;;7.70;100.00
56182;BME280;51963;46.052;14.544;2024-03-22T01:34:09;98681.34;;;7.56;100.00
56182;BME280;51963;46.052;14.544;2024-03-22T01:36:35;98702.75;;;7.69;100.00
56182;BME280;51963;46.052;14.544;2024-03-22T01:39:01;98711.13;;;7.64;100.00
56182;BME280;51963;46.052;14.544;2024-03-22T01:41:29;98694.97;;;7.51;100.00
56182;BME280;51963;46.052;14.544;2024-03-22T01:43:57;98703.97;;;7.40;100.00
56182;BME280;51963;46.052;14.544;2024-03-22T01:46:26;98708.88;;;7.27;100.00
56182;BME280;51963;46.052;14.544;2024-03-22T01:48:52;98702.59;;;7.19;100.00
56182;BME280;51963;46.052;14.544;2024-03-22T01:51:18;98700.31;;;7.25;100.00
56182;BME280;51963;46.052;14.544;2024-03-22T01:53:43;98654.84;;;6.98;100.00
56182;BME280;51963;46.052;14.544;2024-03-22T01:56:10;98692.44;;;7.33;100.00
56182;BME280;51963;46.052;14.544;2024-03-22T01:58:36;98668.88;;;7.15;100.00
56182;BME280;51963;46.052;14.544;2024-03-22T02:01:02;98649.09;;;7.02;100.00
56182;BME280;51963;46.052;14.544;2024-03-22T02:03:28;98695.84;;;7.25;100.00
56182;BME280;51963;46.052;14.544;2024-03-22T02:05:59;98700.97;;;7.27;100.00
56182;BME280;51963;46.052;14.544;2024-03-22T02:08:25;98705.34;;;7.18;100.00
56182;BME280;51963;46.052;14.544;2024-03-22T02:10:53;98667.63;;;6.93;100.00
56182;BME280;51963;46.052;14.544;2024-03-22T02:13:21;98700.38;;;7.07;100.00
56182;BME280;51963;46.052;14.544;2024-03-22T02:15:49;98697.13;;;7.13;100.00
56182;BME280;51963;46.052;14.544;2024-03-22T02:18:15;98688.56;;;7.11;100.00
56182;BME280;51963;46.052;14.544;2024-03-22T02:20:40;98687.44;;;7.13;100.00
56182;BME280;51963;46.052;14.544;2024-03-22T02:23:06;98680.50;;;7.04;100.00
56182;BME280;51963;46.052;14.544;2024-03-22T02:25:31;98689.06;;;7.06;100.00
56182;BME280;51963;46.052;14.544;2024-03-22T02:27:57;98690.38;;;7.10;100.00
56182;BME280;51963;46.052;14.544;2024-03-22T02:30:23;98686.59;;;7.13;100.00
56182;BME280;51963;46.052;14.544;2024-03-22T02:32:48;98695.84;;;7.25;100.00
56182;BME280;51963;46.052;14.544;2024-03-22T02:35:14;98694.41;;;7.31;100.00
56182;BME280;51963;46.052;14.544;2024-03-22T02:37:39;98697.75;;;7.41;100.00
56182;BME280;51963;46.052;14.544;2024-03-22T02:40:05;98698.47;;;7.60;100.00
56182;BME280;51963;46.052;14.544;2024-03-22T02:42:31;98701.06;;;7.52;100.00
56182;BME280;51963;46.052;14.544;2024-03-22T02:44:57;98699.72;;;7.47;100.00
56182;BME280;51963;46.052;14.544;2024-03-22T02:47:22;98698.09;;;7.46;100.00
56182;BME280;51963;46.052;14.544;2024-03-22T02:49:48;98689.84;;;7.41;100.00
56182;BME280;51963;46.052;14.544;2024-03-22T02:52:13;98697.56;;;7.43;100.00
56182;BME280;51963;46.052;14.544;2024-03-22T02:54:39;98698.91;;;7.47;100.00
56182;BME280;51963;46.052;14.544;2024-03-22T02:57:05;98685.06;;;7.45;100.00
56182;BME280;51963;46.052;14.544;2024-03-22T02:59:34;98691.66;;;7.49;100.00
56182;BME280;51963;46.052;14.544;2024-03-22T03:01:59;98691.22;;;7.54;100.00
56182;BME280;51963;46.052;14.544;2024-03-22T03:04:25;98687.59;;;7.55;100.00
56182;BME280;51963;46.052;14.544;2024-03-22T03:06:51;98682.31;;;7.55;100.00
56182;BME280;51963;46.052;14.544;2024-03-22T03:09:16;98697.78;;;7.58;100.00
56182;BME280;51963;46.052;14.544;2024-03-22T03:11:42;98698.13;;;7.63;100.00
56182;BME280;51963;46.052;14.544;2024-03-22T03:14:07;98692.88;;;7.63;100.00
56182;BME280;51963;46.052;14.544;2024-03-22T03:16:33;98696.81;;;7.59;100.00
56182;BME280;51963;46.052;14.544;2024-03-22T03:18:59;98693.84;;;7.62;100.00
56182;BME280;51963;46.052;14.544;2024-03-22T03:21:25;98696.50;;;7.62;100.00
56182;BME280;51963;46.052;14.544;2024-03-22T03:23:51;98690.56;;;7.60;100.00
56182;BME280;51963;46.052;14.544;2024-03-22T03:26:17;98700.91;;;7.61;100.00
56182;BME280;51963;46.052;14.544;2024-03-22T03:28:42;98706.00;;;7.55;100.00
56182;BME280;51963;46.052;14.544;2024-03-22T03:31:08;98695.28;;;7.48;100.00
56182;BME280;51963;46.052;14.544;2024-03-22T03:33:35;98710.59;;;7.53;100.00
56182;BME280;51963;46.052;14.544;2024-03-22T03:36:04;98701.88;;;7.52;100.00
56182;BME280;51963;46.052;14.544;2024-03-22T03:38:29;98683.75;;;7.41;100.00
56182;BME280;51963;46.052;14.544;2024-03-22T03:40:58;98654.41;;;7.19;100.00
56182;BME280;51963;46.052;14.544;2024-03-22T03:43:24;98652.66;;;7.28;100.00
56182;BME280;51963;46.052;14.544;2024-03-22T03:45:49;98695.16;;;7.58;100.00
56182;BME280;51963;46.052;14.544;2024-03-22T03:48:15;98666.66;;;7.45;100.00
56182;BME280;51963;46.052;14.544;2024-03-22T03:50:40;98692.22;;;7.61;100.00
56182;BME280;51963;46.052;14.544;2024-03-22T03:53:06;98697.78;;;7.49;100.00
56182;BME280;51963;46.052;14.544;2024-03-22T03:55:31;98708.34;;;7.66;100.00
56182;BME280;51963;46.052;14.544;2024-03-22T03:58:00;98715.25;;;7.67;100.00
56182;BME280;51963;46.052;14.544;2024-03-22T04:00:25;98680.34;;;7.48;100.00
56182;BME280;51963;46.052;14.544;2024-03-22T04:02:51;98670.28;;;7.44;100.00
56182;BME280;51963;46.052;14.544;2024-03-22T04:05:16;98693.84;;;7.62;100.00
56182;BME280;51963;46.052;14.544;2024-03-22T04:07:42;98698.13;;;7.63;100.00
56182;BME280;51963;46.052;14.544;2024-03-22T04:10:08;98660.56;;;7.36;100.00
56182;BME280;51963;46.052;14.544;2024-03-22T04:12:37;98638.53;;;7.29;100.00
56182;BME280;51963;46.052;14.544;2024-03-22T04:15:03;98645.75;;;7.27;100.00
56182;BME280;51963;46.052;14.544;2024-03-22T04:17:29;98687.06;;;7.51;100.00
56182;BME280;51963;46.052;14.544;2024-03-22T04:19:55;98666.47;;;7.30;100.00
56182;BME280;51963;46.052;14.544;2024-03-22T04:22:23;98658.38;;;7.23;100.00
56182;BME280;51963;46.052;14.544;2024-03-22T04:24:48;98693.31;;;7.50;100.00
56182;BME280;51963;46.052;14.544;2024-03-22T04:27:14;98651.00;;;7.27;100.00
56182;BME280;51963;46.052;14.544;2024-03-22T04:29:40;98653.59;;;7.18;100.00
56182;BME280;51963;46.052;14.544;2024-03-22T04:32:05;98693.13;;;7.35;100.00
56182;BME280;51963;46.052;14.544;2024-03-22T04:34:31;98668.72;;;7.16;100.00
56182;BME280;51963;46.052;14.544;2024-03-22T04:37:00;98648.59;;;6.99;100.00
56182;BME280;51963;46.052;14.544;2024-03-22T04:39:25;98694.09;;;7.34;100.00
56182;BME280;51963;46.052;14.544;2024-03-22T04:41:51;98689.47;;;7.28;100.00
56182;BME280;51963;46.052;14.544;2024-03-22T04:44:19;98674.34;;;7.30;100.00
56182;BME280;51963;46.052;14.544;2024-03-22T04:46:45;98692.94;;;7.37;100.00
56182;BME280;51963;46.052;14.544;2024-03-22T04:49:11;98658.66;;;7.12;100.00
56182;BME280;51963;46.052;14.544;2024-03-22T04:51:37;98653.53;;;7.02;100.00
56182;BME280;51963;46.052;14.544;2024-03-22T04:54:02;98705.59;;;7.33;100.00
56182;BME280;51963;46.052;14.544;2024-03-22T04:56:28;98709.50;;;7.21;100.00
56182;BME280;51963;46.052;14.544;2024-03-22T04:58:53;98712.94;;;7.21;100.00
56182;BME280;51963;46.052;14.544;2024-03-22T05:01:20;98672.28;;;7.07;100.00
56182;BME280;51963;46.052;14.544;2024-03-22T05:03:46;98685.44;;;7.07;100.00
56182;BME280;51963;46.052;14.544;2024-03-22T05:06:13;98700.94;;;7.18;100.00
56182;BME280;51963;46.052;14.544;2024-03-22T05:08:39;98692.03;;;7.11;100.00
56182;BME280;51963;46.052;14.544;2024-03-22T05:11:04;98707.53;;;7.23;100.00
56182;BME280;51963;46.052;14.544;2024-03-22T05:13:30;98696.38;;;7.29;100.00
56182;BME280;51963;46.052;14.544;2024-03-22T05:15:56;98693.63;;;7.04;100.00
56182;BME280;51963;46.052;14.544;2024-03-22T05:18:29;98661.94;;;6.71;100.00
56182;BME280;51963;46.052;14.544;2024-03-22T05:20:55;98715.66;;;7.03;100.00
56182;BME280;51963;46.052;14.544;2024-03-22T05:23:21;98720.25;;;7.01;100.00
56182;BME280;51963;46.052;14.544;2024-03-22T05:25:46;98714.66;;;7.04;100.00
56182;BME280;51963;46.052;14.544;2024-03-22T05:28:12;98724.88;;;7.07;100.00
56182;BME280;51963;46.052;14.544;2024-03-22T05:30:37;98726.53;;;7.08;100.00
56182;BME280;51963;46.052;14.544;2024-03-22T05:33:03;98726.53;;;7.08;100.00
56182;BME280;51963;46.052;14.544;2024-03-22T05:35:29;98721.59;;;7.05;100.00
56182;BME280;51963;46.052;14.544;2024-03-22T05:37:54;98717.00;;;7.07;100.00
56182;BME280;51963;46.052;14.544;2024-03-22T05:40:20;98733.44;;;7.09;100.00
56182;BME280;51963;46.052;14.544;2024-03-22T05:42:47;98738.38;;;7.12;100.00
56182;BME280;51963;46.052;14.544;2024-03-22T05:45:13;98722.91;;;7.09;100.00
56182;BME280;51963;46.052;14.544;2024-03-22T05:47:39;98700.50;;;6.97;100.00
56182;BME280;51963;46.052;14.544;2024-03-22T05:50:05;98725.41;;;7.19;100.00
56182;BME280;51963;46.052;14.544;2024-03-22T05:52:34;98726.78;;;7.31;100.00
56182;BME280;51963;46.052;14.544;2024-03-22T05:55:08;98741.50;;;7.51;100.00
56182;BME280;51963;46.052;14.544;2024-03-22T05:57:33;98733.59;;;7.42;100.00
56182;BME280;51963;46.052;14.544;2024-03-22T05:59:59;98737.94;;;7.60;100.00
56182;BME280;51963;46.052;14.544;2024-03-22T06:02:25;98699.03;;;7.37;100.00
56182;BME280;51963;46.052;14.544;2024-03-22T06:04:50;98725.09;;;7.57;100.00
56182;BME280;51963;46.052;14.544;2024-03-22T06:07:16;98719.31;;;7.53;100.00
56182;BME280;51963;46.052;14.544;2024-03-22T06:09:42;98699.38;;;7.34;100.00
56182;BME280;51963;46.052;14.544;2024-03-22T06:12:14;98746.34;;;7.72;100.00
56182;BME280;51963;46.052;14.544;2024-03-22T06:14:41;98728.69;;;7.56;100.00
56182;BME280;51963;46.052;14.544;2024-03-22T06:17:08;98734.97;;;7.63;100.00
56182;BME280;51963;46.052;14.544;2024-03-22T06:19:40;98746.84;;;7.67;100.00
56182;BME280;51963;46.052;14.544;2024-03-22T06:22:05;98743.59;;;7.82;100.00
56182;BME280;51963;46.052;14.544;2024-03-22T06:24:31;98745.72;;;7.86;100.00
56182;BME280;51963;46.052;14.544;2024-03-22T06:26:57;98722.84;;;7.78;100.00
56182;BME280;51963;46.052;14.544;2024-03-22T06:29:23;98742.63;;;7.91;100.00
56182;BME280;51963;46.052;14.544;2024-03-22T06:31:48;98729.47;;;7.91;100.00
56182;BME280;51963;46.052;14.544;2024-03-22T06:34:18;98745.25;;;7.91;100.00
56182;BME280;51963;46.052;14.544;2024-03-22T06:36:44;98740.66;;;7.93;100.00
56182;BME280;51963;46.052;14.544;2024-03-22T06:39:09;98708.03;;;7.69;100.00
56182;BME280;51963;46.052;14.544;2024-03-22T06:41:35;98749.00;;;7.88;100.00
56182;BME280;51963;46.052;14.544;2024-03-22T06:44:01;98743.25;;;7.76;100.00
56182;BME280;51963;46.052;14.544;2024-03-22T06:46:27;98699.94;;;7.62;100.00
56182;BME280;51963;46.052;14.544;2024-03-22T06:48:53;98722.22;;;8.01;100.00
56182;BME280;51963;46.052;14.544;2024-03-22T06:51:23;98713.66;;;7.99;100.00
56182;BME280;51963;46.052;14.544;2024-03-22T06:53:48;98739.38;;;8.22;100.00
56182;BME280;51963;46.052;14.544;2024-03-22T06:56:14;98709.06;;;7.93;100.00
56182;BME280;51963;46.052;14.544;2024-03-22T06:58:40;98705.75;;;7.91;100.00
56182;BME280;51963;46.052;14.544;2024-03-22T07:01:05;98749.59;;;8.25;100.00
56182;BME280;51963;46.052;14.544;2024-03-22T07:03:31;98755.19;;;8.47;100.00
56182;BME280;51963;46.052;14.544;2024-03-22T07:05:57;98747.66;;;8.60;100.00
56182;BME280;51963;46.052;14.544;2024-03-22T07:08:29;98712.88;;;8.48;100.00
56182;BME280;51963;46.052;14.544;2024-03-22T07:10:57;98742.38;;;8.77;100.00
56182;BME280;51963;46.052;14.544;2024-03-22T07:13:23;98749.94;;;8.72;100.00
56182;BME280;51963;46.052;14.544;2024-03-22T07:15:48;98751.59;;;8.64;100.00
56182;BME280;51963;46.052;14.544;2024-03-22T07:18:14;98751.59;;;8.73;100.00
56182;BME280;51963;46.052;14.544;2024-03-22T07:20:41;98752.22;;;9.00;100.00
56182;BME280;51963;46.052;14.544;2024-03-22T07:23:07;98754.50;;;9.11;100.00
56182;BME280;51963;46.052;14.544;2024-03-22T07:25:33;98753.38;;;8.97;100.00
56182;BME280;51963;46.052;14.544;2024-03-22T07:27:58;98747.31;;;8.80;100.00
56182;BME280;51963;46.052;14.544;2024-03-22T07:30:24;98755.84;;;8.90;100.00
56182;BME280;51963;46.052;14.544;2024-03-22T07:32:50;98736.09;;;8.86;100.00
56182;BME280;51963;46.052;14.544;2024-03-22T07:35:15;98743.97;;;8.94;100.00
56182;BME280;51963;46.052;14.544;2024-03-22T07:37:45;98748.06;;;9.14;100.00
56182;BME280;51963;46.052;14.544;2024-03-22T07:40:11;98742.94;;;9.20;100.00
56182;BME280;51963;46.052;14.544;2024-03-22T07:42:37;98748.22;;;9.20;100.00
56182;BME280;51963;46.052;14.544;2024-03-22T07:45:02;98752.50;;;9.21;100.00
56182;BME280;51963;46.052;14.544;2024-03-22T07:47:29;98747.53;;;9.27;100.00
56182;BME280;51963;46.052;14.544;2024-03-22T07:49:55;98758.88;;;9.44;100.00
56182;BME280;51963;46.052;14.544;2024-03-22T07:52:21;98757.41;;;9.33;100.00
56182;BME280;51963;46.052;14.544;2024-03-22T07:54:46;98751.69;;;9.61;100.00
56182;BME280;51963;46.052;14.544;2024-03-22T07:57:12;98728.28;;;9.58;100.00
56182;BME280;51963;46.052;14.544;2024-03-22T07:59:38;98696.00;;;9.47;100.00
56182;BME280;51963;46.052;14.544;2024-03-22T08:02:05;98741.59;;;9.96;100.00
56182;BME280;51963;46.052;14.544;2024-03-22T08:04:31;98753.25;;;9.78;100.00
56182;BME280;51963;46.052;14.544;2024-03-22T08:06:56;98751.47;;;10.02;100.00
56182;BME280;51963;46.052;14.544;2024-03-22T08:09:23;98749.72;;;9.94;100.00
56182;BME280;51963;46.052;14.544;2024-03-22T08:11:48;98744.09;;;9.97;100.00
56182;BME280;51963;46.052;14.544;2024-03-22T08:14:14;98757.69;;;10.09;100.00
56182;BME280;51963;46.052;14.544;2024-03-22T08:16:39;98750.66;;;10.02;100.00
56182;BME280;51963;46.052;14.544;2024-03-22T08:19:05;98740.66;;;9.89;100.00
56182;BME280;51963;46.052;14.544;2024-03-22T08:21:30;98734.63;;;9.80;100.00
56182;BME280;51963;46.052;14.544;2024-03-22T08:23:56;98761.09;;;9.95;100.00
56182;BME280;51963;46.052;14.544;2024-03-22T08:26:22;98772.25;;;10.05;100.00
56182;BME280;51963;46.052;14.544;2024-03-22T08:28:48;98768.06;;;9.88;100.00
56182;BME280;51963;46.052;14.544;2024-03-22T08:31:14;98768.28;;;10.09;100.00
56182;BME280;51963;46.052;14.544;2024-03-22T08:33:40;98749.84;;;10.48;100.00
56182;BME280;51963;46.052;14.544;2024-03-22T08:36:06;98769.34;;;10.70;100.00
56182;BME280;51963;46.052;14.544;2024-03-22T08:38:32;98767.00;;;10.52;100.00
56182;BME280;51963;46.052;14.544;2024-03-22T08:40:58;98759.03;;;10.60;100.00
56182;BME280;51963;46.052;14.544;2024-03-22T08:43:24;98745.06;;;11.35;100.00
56182;BME280;51963;46.052;14.544;2024-03-22T08:45:51;98754.56;;;11.29;100.00
56182;BME280;51963;46.052;14.544;2024-03-22T08:48:17;98758.03;;;11.59;100.00
56182;BME280;51963;46.052;14.544;2024-03-22T08:50:44;98759.81;;;11.74;100.00
56182;BME280;51963;46.052;14.544;2024-03-22T08:53:10;98752.34;;;11.63;100.00
56182;BME280;51963;46.052;14.544;2024-03-22T08:55:36;98750.19;;;11.51;100.00
56182;BME280;51963;46.052;14.544;2024-03-22T08:58:03;98757.34;;;11.87;100.00
56182;BME280;51963;46.052;14.544;2024-03-22T09:00:29;98758.94;;;12.03;100.00
56182;BME280;51963;46.052;14.544;2024-03-22T09:02:55;98753.41;;;12.20;100.00
56182;BME280;51963;46.052;14.544;2024-03-22T09:05:22;98753.88;;;12.24;100.00
56182;BME280;51963;46.052;14.544;2024-03-22T09:07:47;98753.78;;;12.60;100.00
56182;BME280;51963;46.052;14.544;2024-03-22T09:10:13;98734.31;;;12.25;100.00
56182;BME280;51963;46.052;14.544;2024-03-22T09:12:39;98737.84;;;12.32;100.00
56182;BME280;51963;46.052;14.544;2024-03-22T09:15:06;98743.66;;;12.21;100.00
56182;BME280;51963;46.052;14.544;2024-03-22T09:17:32;98743.78;;;12.34;100.00
56182;BME280;51963;46.052;14.544;2024-03-22T09:19:58;98736.47;;;11.63;100.00
56182;BME280;51963;46.052;14.544;2024-03-22T09:22:27;98732.59;;;11.80;100.00
56182;BME280;51963;46.052;14.544;2024-03-22T09:24:55;98713.53;;;12.28;100.00
56182;BME280;51963;46.052;14.544;2024-03-22T09:27:21;98723.94;;;12.08;100.00
56182;BME280;51963;46.052;14.544;2024-03-22T09:29:48;98728.59;;;13.06;100.00
56182;BME280;51963;46.052;14.544;2024-03-22T09:32:14;98728.75;;;12.98;100.00
56182;BME280;51963;46.052;14.544;2024-03-22T09:34:40;98715.91;;;13.37;100.00
56182;BME280;51963;46.052;14.544;2024-03-22T09:37:05;98702.69;;;14.73;100.00
56182;BME280;51963;46.052;14.544;2024-03-22T09:39:31;98699.38;;;14.98;100.00
56182;BME280;51963;46.052;14.544;2024-03-22T09:42:01;98718.19;;;15.17;100.00
56182;BME280;51963;46.052;14.544;2024-03-22T09:44:32;98710.75;;;15.32;100.00
56182;BME280;51963;46.052;14.544;2024-03-22T09:47:01;98711.44;;;15.73;100.00
56182;BME280;51963;46.052;14.544;2024-03-22T09:49:27;98682.06;;;16.44;95.05
56182;BME280;51963;46.052;14.544;2024-03-22T09:51:52;98707.78;;;16.64;93.94
56182;BME280;51963;46.052;14.544;2024-03-22T09:54:24;98670.47;;;17.20;94.07
56182;BME280;51963;46.052;14.544;2024-03-22T09:56:50;98695.81;;;17.48;84.81
56182;BME280;51963;46.052;14.544;2024-03-22T09:59:23;98654.72;;;17.30;86.08
56182;BME280;51963;46.052;14.544;2024-03-22T10:01:49;98658.53;;;17.83;84.32
56182;BME280;51963;46.052;14.544;2024-03-22T10:04:18;98667.59;;;17.52;82.13
56182;BME280;51963;46.052;14.544;2024-03-22T10:06:52;98678.91;;;17.35;79.49
56182;BME280;51963;46.052;14.544;2024-03-22T10:09:18;98674.16;;;17.98;85.13
56182;BME280;51963;46.052;14.544;2024-03-22T10:11:47;98647.69;;;18.21;78.29
56182;BME280;51963;46.052;14.544;2024-03-22T10:14:17;98629.22;;;18.31;73.36
56182;BME280;51963;46.052;14.544;2024-03-22T10:16:42;98647.03;;;18.73;75.85
56182;BME280;51963;46.052;14.544;2024-03-22T10:19:10;98665.88;;;18.78;73.12
56182;BME280;51963;46.052;14.544;2024-03-22T10:21:41;98665.81;;;19.67;67.47
56182;BME280;51963;46.052;14.544;2024-03-22T10:24:07;98658.19;;;20.38;65.95
56182;BME280;51963;46.052;14.544;2024-03-22T10:26:33;98642.69;;;20.80;63.29
56182;BME280;51963;46.052;14.544;2024-03-22T10:29:08;98618.44;;;21.19;55.06
56182;BME280;51963;46.052;14.544;2024-03-22T10:31:37;98607.94;;;21.95;53.11
56182;BME280;51963;46.052;14.544;2024-03-22T10:34:04;98620.28;;;21.14;54.52
56182;BME280;51963;46.052;14.544;2024-03-22T10:36:37;98596.00;;;22.18;53.53
56182;BME280;51963;46.052;14.544;2024-03-22T10:39:03;98627.56;;;22.66;53.42
56182;BME280;51963;46.052;14.544;2024-03-22T10:41:29;98631.28;;;23.08;52.02
56182;BME280;51963;46.052;14.544;2024-03-22T10:43:55;98633.91;;;24.59;47.89
56182;BME280;51963;46.052;14.544;2024-03-22T10:46:28;98629.31;;;23.82;50.72
56182;BME280;51963;46.052;14.544;2024-03-22T10:48:54;98614.00;;;24.09;49.14
56182;BME280;51963;46.052;14.544;2024-03-22T10:51:21;98596.41;;;24.27;49.63
56182;BME280;51963;46.052;14.544;2024-03-22T10:53:53;98612.25;;;23.46;49.31
56182;BME280;51963;46.052;14.544;2024-03-22T10:56:26;98615.28;;;23.70;49.40
56182;BME280;51963;46.052;14.544;2024-03-22T10:59:02;98605.56;;;23.64;48.60
56182;BME280;51963;46.052;14.544;2024-03-22T11:01:31;98589.06;;;23.60;47.17
56182;BME280;51963;46.052;14.544;2024-03-22T11:04:06;98595.72;;;24.87;45.95
56182;BME280;51963;46.052;14.544;2024-03-22T11:06:32;98589.38;;;24.31;47.78
56182;BME280;51963;46.052;14.544;2024-03-22T11:09:01;98555.78;;;25.69;44.86
56182;BME280;51963;46.052;14.544;2024-03-22T11:11:32;98578.72;;;26.41;43.06
56182;BME280;51963;46.052;14.544;2024-03-22T11:14:03;98565.63;;;26.97;40.12
56182;BME280;51963;46.052;14.544;2024-03-22T11:16:35;98557.50;;;27.16;39.69
56182;BME280;51963;46.052;14.544;2024-03-22T11:19:04;98530.97;;;27.13;39.04
56182;BME280;51963;46.052;14.544;2024-03-22T11:21:33;98531.53;;;27.48;39.16
56182;BME280;51963;46.052;14.544;2024-03-22T11:24:08;98549.69;;;28.00;37.15
56182;BME280;51963;46.052;14.544;2024-03-22T11:27:05;98533.94;;;27.49;38.95
56182;BME280;51963;46.052;14.544;2024-03-22T11:29:57;98498.19;;;26.90;38.12
56182;BME280;51963;46.052;14.544;2024-03-22T11:32:25;98515.91;;;26.58;38.10
56182;BME280;51963;46.052;14.544;2024-03-22T11:34:57;98492.97;;;28.12;36.16
56182;BME280;51963;46.052;14.544;2024-03-22T11:37:23;98493.09;;;27.41;35.56
56182;BME280;51963;46.052;14.544;2024-03-22T11:39:54;98517.13;;;27.66;35.61
56182;BME280;51963;46.052;14.544;2024-03-22T11:42:20;98493.16;;;26.05;34.99
56182;BME280;51963;46.052;14.544;2024-03-22T11:44:46;98480.19;;;27.32;35.86
56182;BME280;51963;46.052;14.544;2024-03-22T11:47:12;98511.88;;;28.59;34.49
56182;BME280;51963;46.052;14.544;2024-03-22T11:49:37;98475.84;;;28.53;32.81
56182;BME280;51963;46.052;14.544;2024-03-22T11:52:03;98476.78;;;28.35;32.73
56182;BME280;51963;46.052;14.544;2024-03-22T11:54:32;98447.00;;;26.83;34.21
56182;BME280;51963;46.052;14.544;2024-03-22T11:57:02;98477.69;;;28.16;32.87
56182;BME280;51963;46.052;14.544;2024-03-22T12:00:42;98472.53;;;28.43;33.37
56182;BME280;51963;46.052;14.544;2024-03-22T12:03:48;98430.38;;;30.22;29.59
56182;BME280;51963;46.052;14.544;2024-03-22T12:06:37;98442.81;;;30.55;30.14
56182;BME280;51963;46.052;14.544;2024-03-22T12:09:03;98424.66;;;30.50;29.37
56182;BME280;51963;46.052;14.544;2024-03-22T12:11:29;98410.38;;;29.46;29.35
56182;BME280;51963;46.052;14.544;2024-03-22T12:13:57;98413.53;;;27.59;30.68
56182;BME280;51963;46.052;14.544;2024-03-22T12:16:27;98429.91;;;30.20;27.44
56182;BME280;51963;46.052;14.544;2024-03-22T12:18:59;98418.38;;;30.23;26.91
56182;BME280;51963;46.052;14.544;2024-03-22T12:21:25;98428.13;;;30.15;28.09
56182;BME280;51963;46.052;14.544;2024-03-22T12:23:53;98383.28;;;29.81;27.12
56182;BME280;51963;46.052;14.544;2024-03-22T12:26:20;98426.13;;;31.27;26.12
56182;BME280;51963;46.052;14.544;2024-03-22T12:28:45;98431.09;;;31.42;25.24
56182;BME280;51963;46.052;14.544;2024-03-22T12:31:12;98398.84;;;31.83;24.29
56182;BME280;51963;46.052;14.544;2024-03-22T12:33:37;98398.78;;;31.53;24.85
56182;BME280;51963;46.052;14.544;2024-03-22T12:36:04;98401.09;;;31.81;22.45
56182;BME280;51963;46.052;14.544;2024-03-22T12:38:29;98409.63;;;30.79;23.94
56182;BME280;51963;46.052;14.544;2024-03-22T12:40:56;98409.59;;;31.32;24.60
56182;BME280;51963;46.052;14.544;2024-03-22T12:43:22;98395.34;;;30.73;22.41
56182;BME280;51963;46.052;14.544;2024-03-22T12:45:48;98380.53;;;31.01;21.80
56182;BME280;51963;46.052;14.544;2024-03-22T12:48:13;98365.34;;;31.48;21.69